createdAt,value
2018-03-22T00:00:29.852Z,16.50
2018-03-22T00:01:29.865Z,16.40
2018-03-22T00:02:29.853Z,17.40
2018-03-22T00:03:29.854Z,17.40
2018-03-22T00:04:29.854Z,17.00
2018-03-22T00:05:29.855Z,18.40
2018-03-22T00:06:29.854Z,19.50
2018-03-22T00:07:29.854Z,14.70
2018-03-22T00:08:29.860Z,17.20
2018-03-22T00:09:29.859Z,22.10
2018-03-22T00:10:29.855Z,21.50
2018-03-22T00:11:29.860Z,17.60
2018-03-22T00:12:29.859Z,15.90
2018-03-22T00:13:29.855Z,17.10
2018-03-22T00:14:29.861Z,16.10
2018-03-22T00:15:29.855Z,17.20
2018-03-22T00:16:29.856Z,17.10
2018-03-22T00:17:29.862Z,19.90
2018-03-22T00:18:29.862Z,16.70
2018-03-22T00:19:29.861Z,16.00
2018-03-22T00:20:29.856Z,17.80
2018-03-22T00:21:29.860Z,18.60
2018-03-22T00:22:29.862Z,16.60
2018-03-22T00:23:29.856Z,17.50
2018-03-22T00:24:29.857Z,18.60
2018-03-22T00:25:29.859Z,15.60
2018-03-22T00:26:29.862Z,18.40
2018-03-22T00:27:29.862Z,16.80
2018-03-22T00:28:29.862Z,18.40
2018-03-22T00:29:29.863Z,13.70
2018-03-22T00:30:29.858Z,16.00
2018-03-22T00:31:29.866Z,15.90
2018-03-22T00:32:29.866Z,16.90
2018-03-22T00:33:29.857Z,18.70
2018-03-22T00:34:29.863Z,15.40
2018-03-22T00:35:29.858Z,15.00
2018-03-22T00:36:29.855Z,15.00
2018-03-22T00:37:29.862Z,15.40
2018-03-22T00:38:29.864Z,15.40
2018-03-22T00:39:29.861Z,18.30
2018-03-22T00:40:29.856Z,18.70
2018-03-22T00:41:29.856Z,15.80
2018-03-22T00:42:29.856Z,14.90
2018-03-22T00:43:29.855Z,17.00
2018-03-22T00:44:29.864Z,18.60
2018-03-22T00:45:29.862Z,16.80
2018-03-22T00:46:29.869Z,18.80
2018-03-22T00:47:29.856Z,16.90
2018-03-22T00:48:29.858Z,17.50
2018-03-22T00:49:29.863Z,17.90
2018-03-22T00:50:29.856Z,20.20
2018-03-22T00:51:29.864Z,19.00
2018-03-22T00:52:29.856Z,18.00
2018-03-22T00:53:29.861Z,17.30
2018-03-22T00:54:29.866Z,18.90
2018-03-22T00:55:29.860Z,18.10
2018-03-22T00:56:29.861Z,20.80
2018-03-22T00:57:29.856Z,16.90
2018-03-22T00:58:29.869Z,18.60
2018-03-22T00:59:29.870Z,19.90
2018-03-22T01:00:29.860Z,19.00
2018-03-22T01:01:29.856Z,22.40
2018-03-22T01:02:29.861Z,20.40
2018-03-22T01:03:29.861Z,22.50
2018-03-22T01:04:29.857Z,17.30
2018-03-22T01:05:29.858Z,16.80
2018-03-22T01:06:29.855Z,16.60
2018-03-22T01:07:29.859Z,16.10
2018-03-22T01:08:29.860Z,18.40
2018-03-22T01:09:29.856Z,17.40
2018-03-22T01:10:29.861Z,16.30
2018-03-22T01:11:29.859Z,15.50
2018-03-22T01:12:29.854Z,16.80
2018-03-22T01:13:29.869Z,14.60
2018-03-22T01:14:29.860Z,15.50
2018-03-22T01:15:29.859Z,14.00
2018-03-22T01:16:29.861Z,17.30
2018-03-22T01:17:29.856Z,19.00
2018-03-22T01:18:29.854Z,18.80
2018-03-22T01:19:29.861Z,15.60
2018-03-22T01:20:29.853Z,16.10
2018-03-22T01:21:29.860Z,15.30
2018-03-22T01:22:29.854Z,15.20
2018-03-22T01:23:29.858Z,17.00
2018-03-22T01:24:29.854Z,15.60
2018-03-22T01:25:29.852Z,16.50
2018-03-22T01:26:29.859Z,16.50
2018-03-22T01:27:29.858Z,19.30
2018-03-22T01:28:29.853Z,14.80
2018-03-22T01:29:29.859Z,15.20
2018-03-22T01:30:29.861Z,17.20
2018-03-22T01:31:29.851Z,15.60
2018-03-22T01:32:29.863Z,18.10
2018-03-22T01:33:29.856Z,15.90
2018-03-22T01:34:29.851Z,19.20
2018-03-22T01:35:29.855Z,17.50
2018-03-22T01:36:29.850Z,17.00
2018-03-22T01:37:29.850Z,17.90
2018-03-22T01:38:29.850Z,13.20
2018-03-22T01:39:29.853Z,16.50
2018-03-22T01:40:29.847Z,14.50
2018-03-22T01:41:29.854Z,17.20
2018-03-22T01:42:29.855Z,15.20
2018-03-22T01:43:29.845Z,15.80
2018-03-22T01:44:29.852Z,16.50
2018-03-22T01:45:29.846Z,17.00
2018-03-22T01:46:29.846Z,18.20
2018-03-22T01:47:29.851Z,18.00
2018-03-22T01:48:29.851Z,16.60
2018-03-22T01:49:29.844Z,15.90
2018-03-22T01:50:29.845Z,16.60
2018-03-22T01:51:29.848Z,14.90
2018-03-22T01:52:29.842Z,15.00
2018-03-22T01:53:29.857Z,16.80
2018-03-22T01:54:29.842Z,16.50
2018-03-22T01:55:29.840Z,15.80
2018-03-22T01:56:29.846Z,16.60
2018-03-22T01:57:29.840Z,15.10
2018-03-22T01:58:29.840Z,15.10
2018-03-22T01:59:29.838Z,15.10
2018-03-22T02:00:29.844Z,17.30
2018-03-22T02:01:29.845Z,15.30
2018-03-22T02:02:29.846Z,16.60
2018-03-22T02:03:29.842Z,14.80
2018-03-22T02:04:29.842Z,15.50
2018-03-22T02:05:29.841Z,15.60
2018-03-22T02:06:29.842Z,16.20
2018-03-22T02:07:29.835Z,15.40
2018-03-22T02:08:29.840Z,15.40
2018-03-22T02:09:29.840Z,17.10
2018-03-22T02:10:29.834Z,17.70
2018-03-22T02:11:29.833Z,16.90
2018-03-22T02:12:29.832Z,14.50
2018-03-22T02:13:29.840Z,14.30
2018-03-22T02:14:29.837Z,17.20
2018-03-22T02:15:29.838Z,16.40
2018-03-22T02:16:29.830Z,14.70
2018-03-22T02:17:29.830Z,17.50
2018-03-22T02:18:29.830Z,12.30
2018-03-22T02:19:29.831Z,16.70
2018-03-22T02:20:29.835Z,15.00
2018-03-22T02:21:29.828Z,15.50
2018-03-22T02:22:29.835Z,14.50
2018-03-22T02:23:29.834Z,16.20
2018-03-22T02:24:29.829Z,17.40
2018-03-22T02:25:29.830Z,16.70
2018-03-22T02:26:29.827Z,17.40
2018-03-22T02:27:29.832Z,15.10
2018-03-22T02:28:29.833Z,13.50
2018-03-22T02:29:29.826Z,15.10
2018-03-22T02:30:29.832Z,12.20
2018-03-22T02:31:29.826Z,15.40
2018-03-22T02:32:29.832Z,14.50
2018-03-22T02:33:29.828Z,15.40
2018-03-22T02:34:29.830Z,15.60
2018-03-22T02:35:29.829Z,17.00
2018-03-22T02:36:29.829Z,16.20
2018-03-22T02:37:29.826Z,14.40
2018-03-22T02:38:29.834Z,15.80
2018-03-22T02:39:29.821Z,14.90
2018-03-22T02:40:29.821Z,21.60
2018-03-22T02:41:29.826Z,19.60
2018-03-22T02:42:29.823Z,15.50
2018-03-22T02:43:29.828Z,15.60
2018-03-22T02:44:29.818Z,15.70
2018-03-22T02:45:29.817Z,16.60
2018-03-22T02:46:29.824Z,15.50
2018-03-22T02:47:29.822Z,14.40
2018-03-22T02:48:29.817Z,15.10
2018-03-22T02:49:29.821Z,14.90
2018-03-22T02:50:29.821Z,13.00
2018-03-22T02:51:29.821Z,14.10
2018-03-22T02:52:29.821Z,12.60
2018-03-22T02:53:29.819Z,13.20
2018-03-22T02:54:29.814Z,14.40
2018-03-22T02:55:29.815Z,15.30
2018-03-22T02:56:29.812Z,12.10
2018-03-22T02:57:29.818Z,13.90
2018-03-22T02:58:29.817Z,14.00
2018-03-22T02:59:29.820Z,13.80
2018-03-22T03:00:29.872Z,13.40
2018-03-22T03:01:29.813Z,13.10
2018-03-22T03:02:29.887Z,13.20
2018-03-22T03:03:29.809Z,15.00
2018-03-22T03:04:29.810Z,13.10
2018-03-22T03:05:29.811Z,14.40
2018-03-22T03:06:29.815Z,14.80
2018-03-22T03:07:29.811Z,13.70
2018-03-22T03:08:29.806Z,14.00
2018-03-22T03:09:29.812Z,12.70
2018-03-22T03:10:29.806Z,13.60
2018-03-22T03:11:29.810Z,13.40
2018-03-22T03:12:29.810Z,14.60
2018-03-22T03:13:29.813Z,14.60
2018-03-22T03:14:29.813Z,13.80
2018-03-22T03:15:29.801Z,16.60
2018-03-22T03:16:29.807Z,12.00
2018-03-22T03:17:29.808Z,13.00
2018-03-22T03:18:29.802Z,12.90
2018-03-22T03:19:29.800Z,15.60
2018-03-22T03:20:29.803Z,14.70
2018-03-22T03:21:29.798Z,13.50
2018-03-22T03:22:29.800Z,15.10
2018-03-22T03:23:29.798Z,15.20
2018-03-22T03:24:29.804Z,15.00
2018-03-22T03:25:29.796Z,13.80
2018-03-22T03:26:29.797Z,13.70
2018-03-22T03:27:29.796Z,12.90
2018-03-22T03:28:29.794Z,15.70
2018-03-22T03:29:29.794Z,14.30
2018-03-22T03:30:29.823Z,13.40
2018-03-22T03:31:29.801Z,12.30
2018-03-22T03:32:29.792Z,15.40
2018-03-22T03:33:29.792Z,15.60
2018-03-22T03:34:29.801Z,14.10
2018-03-22T03:35:29.791Z,15.00
2018-03-22T03:36:29.795Z,14.30
2018-03-22T03:37:29.791Z,14.80
2018-03-22T03:38:29.787Z,13.20
2018-03-22T03:39:29.791Z,13.10
2018-03-22T03:40:29.788Z,13.40
2018-03-22T03:41:29.830Z,16.40
2018-03-22T03:42:29.786Z,12.10
2018-03-22T03:43:29.789Z,13.30
2018-03-22T03:44:29.782Z,10.10
2018-03-22T03:45:29.788Z,10.80
2018-03-22T03:46:29.783Z,14.90
2018-03-22T03:47:29.782Z,15.20
2018-03-22T03:48:29.786Z,12.40
2018-03-22T03:49:29.786Z,12.00
2018-03-22T03:50:29.780Z,10.00
2018-03-22T03:51:29.778Z,11.40
2018-03-22T03:52:29.777Z,11.50
2018-03-22T03:53:29.776Z,10.80
2018-03-22T03:54:29.784Z,8.90
2018-03-22T03:55:29.774Z,9.40
2018-03-22T03:56:29.774Z,10.30
2018-03-22T03:57:29.776Z,13.70
2018-03-22T03:58:29.774Z,15.80
2018-03-22T03:59:29.778Z,13.50
2018-03-22T04:00:29.776Z,11.70
2018-03-22T04:01:29.779Z,10.80
2018-03-22T04:02:29.776Z,9.20
2018-03-22T04:03:29.976Z,10.60
2018-03-22T04:04:29.774Z,10.30
2018-03-22T04:05:29.782Z,10.70
2018-03-22T04:06:29.772Z,10.80
2018-03-22T04:07:29.766Z,9.60
2018-03-22T04:08:29.773Z,8.30
2018-03-22T04:09:29.765Z,9.80
2018-03-22T04:10:29.764Z,8.70
2018-03-22T04:11:29.770Z,8.50
2018-03-22T04:12:29.764Z,8.40
2018-03-22T04:13:29.762Z,9.20
2018-03-22T04:14:29.768Z,11.50
2018-03-22T04:15:29.766Z,8.60
2018-03-22T04:16:29.766Z,9.80
2018-03-22T04:17:29.765Z,9.50
2018-03-22T04:18:29.760Z,9.70
2018-03-22T04:19:29.759Z,8.80
2018-03-22T04:20:29.761Z,8.70
2018-03-22T04:21:29.763Z,8.40
2018-03-22T04:22:29.758Z,6.70
2018-03-22T04:23:29.763Z,8.60
2018-03-22T04:24:29.756Z,7.10
2018-03-22T04:25:29.755Z,11.50
2018-03-22T04:26:29.758Z,7.80
2018-03-22T04:27:29.753Z,8.50
2018-03-22T04:28:29.759Z,8.80
2018-03-22T04:29:29.760Z,8.40
2018-03-22T04:30:29.752Z,9.60
2018-03-22T04:31:29.752Z,9.60
2018-03-22T04:32:29.763Z,10.70
2018-03-22T04:33:29.750Z,9.60
2018-03-22T04:34:29.810Z,8.70
2018-03-22T04:35:29.749Z,10.10
2018-03-22T04:36:29.754Z,9.10
2018-03-22T04:37:29.753Z,13.40
2018-03-22T04:38:29.753Z,7.50
2018-03-22T04:39:29.751Z,8.30
2018-03-22T04:40:29.754Z,7.10
2018-03-22T04:41:29.744Z,7.30
2018-03-22T04:42:29.753Z,7.30
2018-03-22T04:43:29.743Z,6.20
2018-03-22T04:44:29.748Z,7.90
2018-03-22T04:45:29.742Z,7.40
2018-03-22T04:46:29.749Z,20.50
2018-03-22T04:47:29.747Z,36.30
2018-03-22T04:48:29.751Z,30.20
2018-03-22T04:49:29.739Z,13.60
2018-03-22T04:50:29.745Z,11.70
2018-03-22T04:51:29.738Z,7.70
2018-03-22T04:52:29.742Z,10.60
2018-03-22T04:53:29.742Z,9.00
2018-03-22T04:54:29.736Z,8.90
2018-03-22T04:55:29.753Z,8.70
2018-03-22T04:56:29.735Z,10.10
2018-03-22T04:57:29.742Z,10.30
2018-03-22T04:58:29.741Z,10.60
2018-03-22T04:59:29.738Z,8.90
2018-03-22T05:00:29.733Z,9.60
2018-03-22T05:01:29.733Z,11.40
2018-03-22T05:02:29.737Z,10.20
2018-03-22T05:03:29.731Z,10.40
2018-03-22T05:04:29.738Z,10.10
2018-03-22T05:05:29.734Z,10.30
2018-03-22T05:06:29.734Z,11.20
2018-03-22T05:07:29.738Z,8.80
2018-03-22T05:08:29.725Z,8.50
2018-03-22T05:09:29.729Z,9.00
2018-03-22T05:10:29.724Z,9.70
2018-03-22T05:11:29.722Z,8.40
2018-03-22T05:12:29.738Z,7.20
2018-03-22T05:13:29.728Z,8.20
2018-03-22T05:14:29.722Z,7.60
2018-03-22T05:15:29.728Z,6.70
2018-03-22T05:16:29.722Z,8.20
2018-03-22T05:17:29.718Z,8.60
2018-03-22T05:18:29.728Z,8.50
2018-03-22T05:19:29.718Z,9.40
2018-03-22T05:20:29.716Z,7.50
2018-03-22T05:21:29.716Z,7.70
2018-03-22T05:22:29.720Z,11.10
2018-03-22T05:23:29.713Z,7.80
2018-03-22T05:24:29.713Z,9.40
2018-03-22T05:25:29.713Z,8.10
2018-03-22T05:26:29.718Z,10.50
2018-03-22T05:27:29.716Z,11.20
2018-03-22T05:28:29.716Z,10.60
2018-03-22T05:29:29.715Z,8.80
2018-03-22T05:30:29.716Z,9.30
2018-03-22T05:31:29.709Z,8.90
2018-03-22T05:32:29.714Z,8.30
2018-03-22T05:33:29.710Z,9.40
2018-03-22T05:34:29.711Z,7.70
2018-03-22T05:35:29.708Z,8.80
2018-03-22T05:36:29.711Z,8.80
2018-03-22T05:37:29.710Z,10.40
2018-03-22T05:38:29.703Z,9.30
2018-03-22T05:39:29.701Z,7.30
2018-03-22T05:40:29.701Z,10.50
2018-03-22T05:41:29.706Z,8.80
2018-03-22T05:42:29.707Z,7.60
2018-03-22T05:43:29.704Z,7.10
2018-03-22T05:44:29.697Z,6.70
2018-03-22T05:45:29.704Z,7.40
2018-03-22T05:46:29.697Z,7.30
2018-03-22T05:47:29.695Z,6.30
2018-03-22T05:48:29.702Z,4.90
2018-03-22T05:49:29.695Z,5.60
2018-03-22T05:50:29.699Z,5.90
2018-03-22T05:51:29.699Z,6.70
2018-03-22T05:52:29.702Z,7.70
2018-03-22T05:53:29.697Z,5.80
2018-03-22T05:54:29.692Z,6.30
2018-03-22T05:55:29.695Z,6.30
2018-03-22T05:56:29.690Z,5.60
2018-03-22T05:57:29.692Z,5.30
2018-03-22T05:58:29.694Z,5.10
2018-03-22T05:59:29.687Z,7.10
2018-03-22T06:00:29.692Z,10.60
2018-03-22T06:01:29.685Z,11.50
2018-03-22T06:02:29.689Z,11.20
2018-03-22T06:03:29.686Z,9.00
2018-03-22T06:04:29.687Z,7.40
2018-03-22T06:05:29.690Z,7.60
2018-03-22T06:06:29.691Z,8.50
2018-03-22T06:07:29.680Z,6.20
2018-03-22T06:08:29.680Z,7.40
2018-03-22T06:09:29.678Z,8.80
2018-03-22T06:10:29.683Z,5.60
2018-03-22T06:11:29.681Z,6.60
2018-03-22T06:12:29.678Z,5.50
2018-03-22T06:13:29.681Z,5.10
2018-03-22T06:14:29.674Z,5.50
2018-03-22T06:15:29.680Z,3.90
2018-03-22T06:16:29.677Z,3.50
2018-03-22T06:17:29.716Z,5.80
2018-03-22T06:18:29.677Z,6.60
2018-03-22T06:19:29.674Z,7.50
2018-03-22T06:20:29.669Z,6.10
2018-03-22T06:21:29.671Z,8.50
2018-03-22T06:22:29.669Z,10.00
2018-03-22T06:23:29.668Z,9.40
2018-03-22T06:24:29.665Z,7.20
2018-03-22T06:25:29.665Z,8.60
2018-03-22T06:26:29.673Z,7.70
2018-03-22T06:27:29.669Z,7.00
2018-03-22T06:28:29.664Z,9.00
2018-03-22T06:29:29.667Z,8.30
2018-03-22T06:30:29.663Z,8.50
2018-03-22T06:31:29.669Z,7.90
2018-03-22T06:32:29.662Z,8.00
2018-03-22T06:33:29.661Z,12.00
2018-03-22T06:34:29.664Z,22.00
2018-03-22T06:35:29.656Z,22.00
2018-03-22T06:36:29.658Z,16.90
2018-03-22T06:37:29.657Z,18.20
2018-03-22T06:38:29.655Z,13.00
2018-03-22T06:39:29.661Z,11.40
2018-03-22T06:40:29.658Z,10.10
2018-03-22T06:41:29.660Z,13.20
2018-03-22T06:42:29.658Z,13.40
2018-03-22T06:43:29.658Z,10.90
2018-03-22T06:44:29.652Z,10.10
2018-03-22T06:45:29.652Z,7.50
2018-03-22T06:46:29.660Z,9.70
2018-03-22T06:47:29.651Z,9.10
2018-03-22T06:48:29.648Z,8.90
2018-03-22T06:49:29.649Z,9.60
2018-03-22T06:50:29.647Z,10.70
2018-03-22T06:51:29.647Z,8.50
2018-03-22T06:52:29.659Z,6.40
2018-03-22T06:53:29.649Z,7.30
2018-03-22T06:54:29.645Z,8.10
2018-03-22T06:55:29.650Z,7.40
2018-03-22T06:56:29.650Z,8.80
2018-03-22T06:57:29.643Z,7.80
2018-03-22T06:58:29.648Z,7.20
2018-03-22T06:59:29.647Z,8.50
2018-03-22T07:00:29.641Z,8.70
2018-03-22T07:01:29.650Z,9.30
2018-03-22T07:02:29.650Z,8.20
2018-03-22T07:03:29.644Z,10.00
2018-03-22T07:04:29.644Z,10.80
2018-03-22T07:05:29.638Z,11.10
2018-03-22T07:06:29.645Z,11.20
2018-03-22T07:07:29.636Z,11.70
2018-03-22T07:08:29.643Z,10.00
2018-03-22T07:09:29.643Z,8.10
2018-03-22T07:10:29.636Z,7.00
2018-03-22T07:11:29.633Z,7.80
2018-03-22T07:12:29.634Z,8.40
2018-03-22T07:13:29.640Z,7.60
2018-03-22T07:14:29.639Z,6.70
2018-03-22T07:15:29.634Z,7.60
2018-03-22T07:16:29.639Z,8.00
2018-03-22T07:17:29.641Z,7.40
2018-03-22T07:18:29.638Z,4.80
2018-03-22T07:19:29.635Z,6.40
2018-03-22T07:20:29.637Z,4.00
2018-03-22T07:21:29.641Z,5.40
2018-03-22T07:22:29.638Z,4.00
2018-03-22T07:23:29.630Z,6.90
2018-03-22T07:24:29.637Z,8.30
2018-03-22T07:25:29.681Z,8.40
2018-03-22T07:26:29.636Z,8.30
2018-03-22T07:27:29.631Z,9.70
2018-03-22T07:28:29.631Z,8.00
2018-03-22T07:29:29.637Z,8.00
2018-03-22T07:30:29.641Z,7.30
2018-03-22T07:31:29.639Z,6.40
2018-03-22T07:32:29.636Z,7.50
2018-03-22T07:33:29.636Z,6.40
2018-03-22T07:34:29.633Z,6.00
2018-03-22T07:35:29.631Z,6.40
2018-03-22T07:36:29.633Z,6.20
2018-03-22T07:37:29.637Z,6.30
2018-03-22T07:38:29.638Z,6.40
2018-03-22T07:39:29.641Z,6.20
2018-03-22T07:40:29.635Z,8.00
2018-03-22T07:41:29.637Z,9.60
2018-03-22T07:42:29.632Z,8.20
2018-03-22T07:43:29.638Z,6.90
2018-03-22T07:44:29.638Z,8.60
2018-03-22T07:45:29.635Z,6.50
2018-03-22T07:46:29.640Z,6.50
2018-03-22T07:47:29.639Z,5.90
2018-03-22T07:48:29.640Z,7.30
2018-03-22T07:49:29.635Z,7.10
2018-03-22T07:50:29.640Z,8.40
2018-03-22T07:51:29.637Z,7.30
2018-03-22T07:52:29.635Z,7.60
2018-03-22T07:53:29.636Z,8.70
2018-03-22T07:54:29.638Z,8.10
2018-03-22T07:55:29.639Z,5.60
2018-03-22T07:56:29.637Z,4.80
2018-03-22T07:57:29.638Z,6.90
2018-03-22T07:58:29.646Z,5.70
2018-03-22T07:59:29.646Z,8.20
2018-03-22T08:00:29.647Z,7.00
2018-03-22T08:01:29.644Z,11.40
2018-03-22T08:02:29.648Z,9.80
2018-03-22T08:03:29.642Z,10.40
2018-03-22T08:04:29.659Z,6.90
2018-03-22T08:05:29.644Z,7.90
2018-03-22T08:06:29.646Z,9.20
2018-03-22T08:07:29.651Z,9.40
2018-03-22T08:08:29.654Z,9.00
2018-03-22T08:09:29.650Z,8.50
2018-03-22T08:10:29.650Z,10.60
2018-03-22T08:11:29.656Z,8.40
2018-03-22T08:12:29.665Z,9.50
2018-03-22T08:13:29.657Z,10.10
2018-03-22T08:14:29.659Z,9.70
2018-03-22T08:15:29.655Z,10.70
2018-03-22T08:16:29.654Z,8.50
2018-03-22T08:17:29.655Z,7.60
2018-03-22T08:18:29.664Z,8.20
2018-03-22T08:19:29.662Z,9.10
2018-03-22T08:20:29.666Z,9.70
2018-03-22T08:21:29.661Z,8.80
2018-03-22T08:22:29.667Z,8.80
2018-03-22T08:23:29.663Z,9.20
2018-03-22T08:24:29.666Z,9.60
2018-03-22T08:25:29.672Z,9.30
2018-03-22T08:26:29.666Z,7.60
2018-03-22T08:27:29.677Z,9.90
2018-03-22T08:28:29.674Z,7.70
2018-03-22T08:29:29.676Z,8.30
2018-03-22T08:30:29.680Z,7.00
2018-03-22T08:31:29.732Z,8.50
2018-03-22T08:32:29.676Z,9.50
2018-03-22T08:33:29.679Z,9.40
2018-03-22T08:34:29.684Z,7.80
2018-03-22T08:35:29.686Z,8.60
2018-03-22T08:36:29.681Z,10.40
2018-03-22T08:37:29.688Z,8.40
2018-03-22T08:38:29.691Z,8.70
2018-03-22T08:39:29.691Z,10.20
2018-03-22T08:40:29.688Z,8.30
2018-03-22T08:41:29.695Z,7.60
2018-03-22T08:42:29.698Z,8.60
2018-03-22T08:43:29.694Z,9.10
2018-03-22T08:44:29.702Z,7.90
2018-03-22T08:45:29.704Z,7.80
2018-03-22T08:46:29.709Z,7.50
2018-03-22T08:47:29.702Z,9.70
2018-03-22T08:48:29.705Z,9.30
2018-03-22T08:49:29.706Z,8.70
2018-03-22T08:50:29.707Z,7.80
2018-03-22T08:51:29.716Z,8.30
2018-03-22T08:52:29.709Z,7.90
2018-03-22T08:53:29.719Z,8.10
2018-03-22T08:54:29.715Z,7.30
2018-03-22T08:55:29.723Z,6.90
2018-03-22T08:56:29.725Z,7.70
2018-03-22T08:57:29.723Z,7.20
2018-03-22T08:58:29.729Z,8.50
2018-03-22T08:59:29.730Z,8.00
2018-03-22T09:00:29.732Z,8.40
2018-03-22T09:01:29.741Z,8.30
2018-03-22T09:02:29.738Z,10.70
2018-03-22T09:03:29.737Z,7.90
2018-03-22T09:04:29.736Z,8.50
2018-03-22T09:05:29.746Z,9.30
2018-03-22T09:06:29.747Z,7.90
2018-03-22T09:07:29.743Z,6.60
2018-03-22T09:08:29.752Z,6.60
2018-03-22T09:09:29.755Z,7.70
2018-03-22T09:10:29.758Z,6.80
2018-03-22T09:11:29.762Z,7.20
2018-03-22T09:12:29.761Z,7.00
2018-03-22T09:13:29.760Z,8.20
2018-03-22T09:14:29.762Z,10.20
2018-03-22T09:15:29.768Z,9.50
2018-03-22T09:16:29.772Z,8.30
2018-03-22T09:17:29.769Z,7.40
2018-03-22T09:18:29.777Z,8.20
2018-03-22T09:19:29.785Z,6.90
2018-03-22T09:20:29.781Z,7.10
2018-03-22T09:21:29.781Z,8.10
2018-03-22T09:22:29.813Z,7.70
2018-03-22T09:23:29.793Z,10.40
2018-03-22T09:24:29.794Z,8.30
2018-03-22T09:25:29.793Z,6.40
2018-03-22T09:26:29.806Z,7.20
2018-03-22T09:27:29.799Z,8.00
2018-03-22T09:28:29.802Z,8.00
2018-03-22T09:29:29.808Z,7.80
2018-03-22T09:30:29.809Z,8.90
2018-03-22T09:31:29.818Z,7.30
2018-03-22T09:32:29.821Z,8.10
2018-03-22T09:33:29.823Z,9.60
2018-03-22T09:34:29.824Z,8.10
2018-03-22T09:35:29.830Z,7.10
2018-03-22T09:36:29.837Z,7.50
2018-03-22T09:37:29.834Z,9.00
2018-03-22T09:38:29.879Z,8.60
2018-03-22T09:39:29.846Z,7.80
2018-03-22T09:40:29.850Z,9.00
2018-03-22T09:41:29.856Z,6.60
2018-03-22T09:42:29.861Z,6.10
2018-03-22T09:43:29.861Z,5.00
2018-03-22T09:44:29.862Z,5.80
2018-03-22T09:45:29.871Z,12.90
2018-03-22T09:46:29.876Z,6.80
2018-03-22T09:47:29.873Z,8.40
2018-03-22T09:48:29.878Z,8.90
2018-03-22T09:49:29.882Z,7.40
2018-03-22T09:50:29.889Z,7.90
2018-03-22T09:51:29.892Z,7.60
2018-03-22T09:52:29.896Z,7.90
2018-03-22T09:53:29.904Z,6.90
2018-03-22T09:54:29.905Z,7.30
2018-03-22T09:55:29.914Z,6.70
2018-03-22T09:56:29.918Z,8.10
2018-03-22T09:57:29.919Z,6.70
2018-03-22T09:58:29.930Z,7.50
2018-03-22T09:59:29.928Z,7.50
2018-03-22T10:00:29.933Z,6.40
2018-03-22T10:01:29.940Z,6.80
2018-03-22T10:02:29.948Z,6.70
2018-03-22T10:03:29.952Z,8.70
2018-03-22T10:04:29.956Z,7.20
2018-03-22T10:05:29.958Z,6.90
2018-03-22T10:06:29.967Z,5.60
2018-03-22T10:07:29.972Z,5.60
2018-03-22T10:08:29.997Z,6.00
2018-03-22T10:09:29.978Z,7.70
2018-03-22T10:10:29.989Z,8.00
2018-03-22T10:11:29.991Z,6.80
2018-03-22T10:12:29.994Z,6.50
2018-03-22T10:13:29.999Z,7.50
2018-03-22T10:14:30.006Z,6.20
2018-03-22T10:15:30.027Z,6.60
2018-03-22T10:16:30.020Z,6.40
2018-03-22T10:17:30.034Z,6.70
2018-03-22T10:18:30.029Z,6.70
2018-03-22T10:19:30.033Z,8.20
2018-03-22T10:20:30.038Z,6.80
2018-03-22T10:21:30.044Z,7.10
2018-03-22T10:22:30.053Z,6.50
2018-03-22T10:23:30.057Z,5.50
2018-03-22T10:24:30.067Z,6.60
2018-03-22T10:25:30.074Z,6.30
2018-03-22T10:26:30.078Z,9.00
2018-03-22T10:27:30.085Z,8.20
2018-03-22T10:28:30.084Z,7.80
2018-03-22T10:29:30.091Z,9.10
2018-03-22T10:30:30.099Z,8.60
2018-03-22T10:31:30.114Z,8.30
2018-03-22T10:32:30.116Z,7.80
2018-03-22T10:33:30.125Z,7.20
2018-03-22T10:34:30.129Z,8.90
2018-03-22T10:35:30.138Z,8.00
2018-03-22T10:36:30.140Z,6.70
2018-03-22T10:37:30.141Z,7.00
2018-03-22T10:38:30.153Z,6.50
2018-03-22T10:39:30.162Z,6.40
2018-03-22T10:40:30.158Z,6.20
2018-03-22T10:41:30.166Z,6.20
2018-03-22T10:42:30.173Z,5.30
2018-03-22T10:43:30.183Z,6.90
2018-03-22T10:44:30.190Z,6.00
2018-03-22T10:45:30.197Z,7.50
2018-03-22T10:46:30.199Z,8.10
2018-03-22T10:47:30.205Z,6.20
2018-03-22T10:48:30.217Z,5.80
2018-03-22T10:49:30.217Z,5.10
2018-03-22T10:50:30.229Z,5.30
2018-03-22T10:51:30.238Z,5.30
2018-03-22T10:52:30.238Z,4.20
2018-03-22T10:53:30.244Z,4.20
2018-03-22T10:54:30.253Z,2.30
2018-03-22T10:55:30.258Z,2.20
2018-03-22T10:56:30.263Z,3.40
2018-03-22T10:57:30.279Z,3.20
2018-03-22T10:58:30.285Z,4.00
2018-03-22T10:59:30.291Z,5.50
2018-03-22T11:00:30.294Z,4.20
2018-03-22T11:01:30.307Z,4.60
2018-03-22T11:02:30.316Z,7.20
2018-03-22T11:03:30.321Z,5.80
2018-03-22T11:04:30.323Z,6.20
2018-03-22T11:05:30.336Z,7.50
2018-03-22T11:06:30.345Z,5.90
2018-03-22T11:07:30.352Z,6.70
2018-03-22T11:08:30.359Z,6.00
2018-03-22T11:09:30.366Z,6.90
2018-03-22T11:10:30.374Z,7.00
2018-03-22T11:11:30.382Z,5.90
2018-03-22T11:12:30.384Z,5.90
2018-03-22T11:13:30.398Z,6.10
2018-03-22T11:14:30.408Z,5.80
2018-03-22T11:15:30.415Z,8.20
2018-03-22T11:16:30.419Z,6.40
2018-03-22T11:17:30.423Z,5.70
2018-03-22T11:18:30.431Z,4.70
2018-03-22T11:19:30.448Z,6.20
2018-03-22T11:20:30.447Z,6.20
2018-03-22T11:21:30.456Z,6.10
2018-03-22T11:22:30.475Z,5.70
2018-03-22T11:23:30.478Z,6.20
2018-03-22T11:24:30.486Z,7.00
2018-03-22T11:25:30.485Z,6.10
2018-03-22T11:26:30.502Z,5.40
2018-03-22T11:27:30.535Z,6.50
2018-03-22T11:28:30.516Z,5.70
2018-03-22T11:29:30.524Z,6.30
2018-03-22T11:30:30.534Z,5.10
2018-03-22T11:31:30.543Z,5.30
2018-03-22T11:32:30.544Z,5.20
2018-03-22T11:33:30.556Z,6.10
2018-03-22T11:34:30.565Z,6.90
2018-03-22T11:35:30.574Z,5.70
2018-03-22T11:36:30.581Z,5.80
2018-03-22T11:37:30.586Z,6.10
2018-03-22T11:38:30.597Z,5.40
2018-03-22T11:39:30.607Z,5.00
2018-03-22T11:40:30.615Z,5.60
2018-03-22T11:41:30.624Z,5.70
2018-03-22T11:42:30.626Z,6.10
2018-03-22T11:43:30.635Z,5.30
2018-03-22T11:44:30.649Z,5.50
2018-03-22T11:45:30.659Z,6.70
2018-03-22T11:46:30.661Z,5.10
2018-03-22T11:47:30.668Z,5.20
2018-03-22T11:48:30.679Z,5.60
2018-03-22T11:49:30.692Z,4.90
2018-03-22T11:50:30.702Z,5.50
2018-03-22T11:51:30.708Z,5.70
2018-03-22T11:52:30.713Z,5.80
2018-03-22T11:53:30.722Z,5.60
2018-03-22T11:54:30.732Z,6.10
2018-03-22T11:55:30.746Z,4.70
2018-03-22T11:56:30.783Z,4.10
2018-03-22T11:57:30.762Z,6.50
2018-03-22T11:58:30.773Z,6.20
2018-03-22T11:59:30.781Z,6.10
2018-03-22T12:00:30.789Z,5.60
2018-03-22T12:01:30.798Z,5.50
2018-03-22T12:02:30.803Z,5.70
2018-03-22T12:03:30.811Z,5.00
2018-03-22T12:04:30.821Z,5.80
2018-03-22T12:05:30.830Z,5.60
2018-03-22T12:06:30.847Z,5.40
2018-03-22T12:07:30.850Z,4.90
2018-03-22T12:08:30.864Z,3.50
2018-03-22T12:09:30.869Z,5.80
2018-03-22T12:10:30.885Z,5.50
2018-03-22T12:11:30.897Z,5.60
2018-03-22T12:12:30.965Z,5.50
2018-03-22T12:13:30.916Z,5.20
2018-03-22T12:14:30.924Z,4.20
2018-03-22T12:15:30.931Z,3.30
2018-03-22T12:16:30.948Z,3.30
2018-03-22T12:17:30.954Z,3.80
2018-03-22T12:18:30.965Z,3.00
2018-03-22T12:19:30.979Z,3.30
2018-03-22T12:20:30.990Z,2.50
2018-03-22T12:21:31.001Z,2.30
2018-03-22T12:22:31.009Z,2.40
2018-03-22T12:23:31.024Z,3.30
2018-03-22T12:24:31.089Z,3.50
2018-03-22T12:25:31.041Z,3.00
2018-03-22T12:26:31.053Z,2.80
2018-03-22T12:27:31.062Z,2.30
2018-03-22T12:28:31.081Z,2.10
2018-03-22T12:29:31.085Z,2.50
2018-03-22T12:30:31.096Z,5.30
2018-03-22T12:31:31.112Z,4.40
2018-03-22T12:32:31.119Z,4.60
2018-03-22T12:33:31.130Z,5.00
2018-03-22T12:34:31.148Z,4.50
2018-03-22T12:35:31.154Z,5.30
2018-03-22T12:36:31.163Z,4.80
2018-03-22T12:37:31.168Z,4.00
2018-03-22T12:38:31.184Z,4.70
2018-03-22T12:39:31.187Z,4.40
2018-03-22T12:40:31.196Z,5.70
2018-03-22T12:41:31.210Z,2.70
2018-03-22T12:42:31.224Z,2.40
2018-03-22T12:43:31.283Z,2.40
2018-03-22T12:44:31.232Z,2.60
2018-03-22T12:45:31.241Z,2.20
2018-03-22T12:46:31.256Z,2.80
2018-03-22T12:47:31.267Z,2.80
2018-03-22T12:48:31.269Z,2.60
2018-03-22T12:49:31.281Z,3.50
2018-03-22T12:50:31.292Z,3.20
2018-03-22T12:51:31.295Z,2.60
2018-03-22T12:52:31.308Z,2.80
2018-03-22T12:53:31.318Z,10.90
2018-03-22T12:54:31.321Z,6.20
2018-03-22T12:55:31.335Z,5.00
2018-03-22T12:56:31.343Z,4.00
2018-03-22T12:57:31.348Z,3.50
2018-03-22T12:58:31.358Z,4.60
2018-03-22T12:59:31.364Z,3.40
2018-03-22T13:00:31.373Z,3.20
2018-03-22T13:01:31.382Z,3.70
2018-03-22T13:02:31.396Z,3.00
2018-03-22T13:03:31.397Z,3.90
2018-03-22T13:04:31.411Z,3.50
2018-03-22T13:05:31.420Z,2.90
2018-03-22T13:06:31.423Z,3.00
2018-03-22T13:07:31.435Z,2.90
2018-03-22T13:08:31.440Z,3.50